Terminal Aerodrome Forecast
Issued by NWS Goodland, KS

Home | Current Version | Previous Version | Text Only | Print | Product List | Glossary On
Versions: 1 2 3 4 5 6 7 8 9 10 11 12 13 14 15 16 17 18 19 20 21
970
FTUS43 KGLD 201149
TAFGLD
TAF
KGLD 201149Z 2012/2112 20012KT P6SM FEW100 SCT250
     FM201600 21010KT P6SM FEW250
     FM202200 18009KT P6SM SCT100
     FM210800 22007KT P6SM SCT100=

USA.gov is the U.S. government's official web portal to all federal, state and local government web resources and services.